Time,TemperatureF,DewpointF,PressureIn,WindDirection,WindDirectionDegrees,WindSpeedMPH,WindSpeedGustMPH,Humidity,HourlyPrecipIn,Conditions,Clouds,dailyrainin,SoftwareType,DateUTC
2013-07-24 00:02:00,68.0,50.0,30.67,West,270,0.0,0.0,52,-99.99,,,-99.99,,2013-07-24 07:02:00,
2013-07-24 00:11:00,68.0,50.0,30.67,West,270,0.0,0.0,52,-99.99,,,-99.99,,2013-07-24 07:11:00,
2013-07-24 00:32:00,67.0,49.0,30.67,West,270,0.0,0.0,53,-99.99,,,-99.99,,2013-07-24 07:32:00,
2013-07-24 00:43:00,66.0,49.0,30.67,West,270,0.0,0.0,55,-99.99,,,-99.99,,2013-07-24 07:43:00,
2013-07-24 00:52:00,66.0,49.0,30.67,West,270,0.0,0.0,55,-99.99,,,-99.99,,2013-07-24 07:52:00,
2013-07-24 01:12:00,65.0,49.0,30.67,West,270,0.0,0.0,56,-99.99,,,-99.99,,2013-07-24 08:12:00,
2013-07-24 01:42:00,65.0,48.0,30.66,West,270,0.0,0.0,55,-99.99,,,-99.99,,2013-07-24 08:42:00,
2013-07-24 01:52:00,65.0,48.0,30.66,West,270,0.0,0.0,55,-99.99,,,-99.99,,2013-07-24 08:52:00,
2013-07-24 02:01:00,65.0,48.0,30.66,West,270,0.0,0.0,55,-99.99,,,-99.99,,2013-07-24 09:01:00,
2013-07-24 02:11:00,65.0,48.0,30.66,West,270,0.0,0.0,55,-99.99,,,-99.99,,2013-07-24 09:11:00,
2013-07-24 02:32:00,65.0,47.0,30.66,West,270,0.0,0.0,52,-99.99,,,-99.99,,2013-07-24 09:32:00,
2013-07-24 02:43:00,65.0,47.0,30.66,West,270,0.0,0.0,52,-99.99,,,-99.99,,2013-07-24 09:43:00,
2013-07-24 02:53:00,65.0,47.0,30.66,West,270,0.0,0.0,52,-99.99,,,-99.99,,2013-07-24 09:53:00,
2013-07-24 03:01:00,65.0,48.0,30.67,West,270,0.0,0.0,54,-99.99,,,-99.99,,2013-07-24 10:01:00,
2013-07-24 03:11:00,65.0,47.0,30.67,West,270,0.0,0.0,53,-99.99,,,-99.99,,2013-07-24 10:11:00,
2013-07-24 03:22:00,65.0,47.0,30.67,West,270,0.0,0.0,53,-99.99,,,-99.99,,2013-07-24 10:22:00,
2013-07-24 03:43:00,65.0,48.0,30.67,West,270,0.0,0.0,55,-99.99,,,-99.99,,2013-07-24 10:43:00,
2013-07-24 03:53:00,65.0,48.0,30.67,West,270,0.0,0.0,55,-99.99,,,-99.99,,2013-07-24 10:53:00,
2013-07-24 04:01:00,65.0,48.0,30.67,West,270,0.0,0.0,55,-99.99,,,-99.99,,2013-07-24 11:01:00,
2013-07-24 04:32:00,65.0,49.0,30.68,West,270,0.0,0.0,57,-99.99,,,-99.99,,2013-07-24 11:32:00,
2013-07-24 04:43:00,65.0,50.0,30.68,West,270,0.0,0.0,58,-99.99,,,-99.99,,2013-07-24 11:43:00,
2013-07-24 04:52:00,65.0,49.0,30.68,West,270,0.0,0.0,57,-99.99,,,-99.99,,2013-07-24 11:52:00,
2013-07-24 05:42:00,63.0,51.0,30.68,West,270,0.0,0.0,65,-99.99,,,-99.99,,2013-07-24 12:42:00,
2013-07-24 05:52:00,63.0,51.0,30.68,West,270,0.0,0.0,65,-99.99,,,-99.99,,2013-07-24 12:52:00,
2013-07-24 09:02:00,68.0,53.0,30.70,West,270,0.0,0.0,59,-99.99,,,-99.99,,2013-07-24 16:02:00,
2013-07-24 09:12:00,69.0,54.0,30.70,West,270,0.0,0.0,58,-99.99,,,-99.99,,2013-07-24 16:12:00,
2013-07-24 10:02:00,71.0,54.0,30.69,West,270,0.0,0.0,54,-99.99,,,-99.99,,2013-07-24 17:02:00,
2013-07-24 10:11:00,72.0,54.0,30.70,West,270,0.0,0.0,53,-99.99,,,-99.99,,2013-07-24 17:11:00,
2013-07-24 13:42:00,82.0,53.0,30.71,West,270,0.0,0.0,37,-99.99,,,-99.99,,2013-07-24 20:42:00,
2013-07-24 15:32:00,85.0,54.0,30.69,West,270,0.0,0.0,35,-99.99,,,-99.99,,2013-07-24 22:32:00,
2013-07-24 16:52:00,86.0,53.0,30.68,West,270,0.0,0.0,32,-99.99,,,-99.99,,2013-07-24 23:52:00,
2013-07-24 20:43:00,83.0,48.0,30.68,West,270,0.0,0.0,30,-99.99,,,-99.99,,2013-07-25 03:43:00,
2013-07-24 21:02:00,79.0,46.0,30.67,West,270,0.0,0.0,31,-99.99,,,-99.99,,2013-07-25 04:02:00,
2013-07-24 21:11:00,79.0,46.0,30.67,West,270,0.0,0.0,31,-99.99,,,-99.99,,2013-07-25 04:11:00,
2013-07-24 21:22:00,78.0,46.0,30.68,West,270,0.0,0.0,32,-99.99,,,-99.99,,2013-07-25 04:22:00,
2013-07-24 21:43:00,76.0,46.0,30.67,West,270,0.0,0.0,35,-99.99,,,-99.99,,2013-07-25 04:43:00,
2013-07-24 21:53:00,76.0,46.0,30.67,West,270,0.0,0.0,35,-99.99,,,-99.99,,2013-07-25 04:53:00,
2013-07-24 22:02:00,75.0,45.0,30.68,West,270,0.0,0.0,35,-99.99,,,-99.99,,2013-07-25 05:02:00,
2013-07-24 22:43:00,71.0,44.0,30.67,West,270,0.0,0.0,38,-99.99,,,-99.99,,2013-07-25 05:43:00,
2013-07-24 22:52:00,71.0,44.0,30.67,West,270,0.0,0.0,38,-99.99,,,-99.99,,2013-07-25 05:52:00,
2013-07-24 23:01:00,70.0,45.0,30.68,West,270,0.0,0.0,40,-99.99,,,-99.99,,2013-07-25 06:01:00,
2013-07-24 23:11:00,70.0,45.0,30.68,West,270,0.0,0.0,40,-99.99,,,-99.99,,2013-07-25 06:11:00,
2013-07-24 23:32:00,68.0,45.0,30.68,West,270,0.0,0.0,44,-99.99,,,-99.99,,2013-07-25 06:32:00,
2013-07-24 23:42:00,67.0,44.0,30.68,West,270,0.0,0.0,44,-99.99,,,-99.99,,2013-07-25 06:42:00,